createdAt,value
2017-12-26T00:00:01.170Z,0
2017-12-26T00:01:02.584Z,0
2017-12-26T00:02:04.004Z,0
2017-12-26T00:03:05.412Z,0
2017-12-26T00:04:06.818Z,0
2017-12-26T00:05:08.228Z,0
2017-12-26T00:06:09.644Z,0
2017-12-26T00:07:11.054Z,0
2017-12-26T00:08:12.461Z,0
2017-12-26T00:09:13.872Z,0
2017-12-26T00:10:15.301Z,0
2017-12-26T00:11:16.711Z,0
2017-12-26T00:12:18.117Z,0
2017-12-26T00:13:19.548Z,0
2017-12-26T00:14:20.966Z,0
2017-12-26T00:15:22.387Z,0
2017-12-26T00:16:23.794Z,0
2017-12-26T00:17:25.208Z,0
2017-12-26T00:18:26.616Z,0
2017-12-26T00:19:28.016Z,0
2017-12-26T00:20:29.426Z,0
2017-12-26T00:21:30.841Z,0
2017-12-26T00:22:32.254Z,0
2017-12-26T00:23:33.656Z,0
2017-12-26T00:24:35.083Z,0
2017-12-26T00:25:36.495Z,0
2017-12-26T00:26:37.905Z,0
2017-12-26T00:27:39.315Z,0
2017-12-26T00:28:40.729Z,0
2017-12-26T00:29:42.136Z,0
2017-12-26T00:30:43.543Z,0
2017-12-26T00:31:44.963Z,0
2017-12-26T00:32:46.370Z,0
2017-12-26T00:33:47.783Z,0
2017-12-26T00:34:49.187Z,0
2017-12-26T00:35:50.592Z,0
2017-12-26T00:36:51.999Z,0
2017-12-26T00:37:53.411Z,0
2017-12-26T00:38:54.853Z,0
2017-12-26T00:39:56.232Z,0
2017-12-26T00:40:57.634Z,0
2017-12-26T00:41:59.057Z,0
2017-12-26T00:43:00.483Z,0
2017-12-26T00:44:01.907Z,0
2017-12-26T00:45:03.305Z,0
2017-12-26T00:46:04.720Z,0
2017-12-26T00:47:06.146Z,0
2017-12-26T00:48:07.549Z,0
2017-12-26T00:49:08.953Z,0
2017-12-26T00:50:10.372Z,0
2017-12-26T00:51:11.778Z,0
2017-12-26T00:52:13.196Z,0
2017-12-26T00:53:14.607Z,0
2017-12-26T00:54:16.024Z,0
2017-12-26T00:55:17.428Z,0
2017-12-26T00:56:18.834Z,0
2017-12-26T00:57:20.247Z,0
2017-12-26T00:58:21.660Z,0
2017-12-26T00:59:23.067Z,0
2017-12-26T01:00:24.527Z,0
2017-12-26T01:01:25.950Z,0
2017-12-26T01:02:27.357Z,0
2017-12-26T01:03:28.770Z,0
2017-12-26T01:04:30.180Z,0
2017-12-26T01:05:31.585Z,0
2017-12-26T01:06:33.006Z,0
2017-12-26T01:07:34.409Z,0
2017-12-26T01:08:35.834Z,0
2017-12-26T01:09:37.246Z,0
2017-12-26T01:10:38.657Z,0
2017-12-26T01:11:40.071Z,0
2017-12-26T01:12:41.491Z,0
2017-12-26T01:13:42.904Z,0
2017-12-26T01:14:44.307Z,0
2017-12-26T01:15:45.718Z,0
2017-12-26T01:16:47.126Z,0
2017-12-26T01:17:48.538Z,0
2017-12-26T01:18:49.959Z,0
2017-12-26T01:19:51.360Z,0
2017-12-26T01:20:52.768Z,0
2017-12-26T01:21:54.182Z,0
2017-12-26T01:22:55.596Z,0
2017-12-26T01:23:57.006Z,0
2017-12-26T01:24:58.416Z,0
2017-12-26T01:25:59.822Z,0
2017-12-26T01:27:01.231Z,0
2017-12-26T01:28:02.644Z,0
2017-12-26T01:29:04.054Z,0
2017-12-26T01:30:05.486Z,0
2017-12-26T01:31:06.893Z,0
2017-12-26T01:32:08.358Z,0
2017-12-26T01:33:09.774Z,0
2017-12-26T01:34:11.176Z,0
2017-12-26T01:35:12.584Z,0
2017-12-26T01:36:13.989Z,0
2017-12-26T01:37:15.404Z,0
2017-12-26T01:38:16.811Z,0
2017-12-26T01:39:18.225Z,0
2017-12-26T01:40:19.627Z,0
2017-12-26T01:41:21.031Z,0
2017-12-26T01:42:22.429Z,0
2017-12-26T01:43:23.847Z,0
2017-12-26T01:44:25.258Z,0
2017-12-26T01:45:26.663Z,0
2017-12-26T01:46:28.076Z,0
2017-12-26T01:47:29.484Z,0
2017-12-26T01:48:30.928Z,0
2017-12-26T01:49:32.337Z,0
2017-12-26T01:50:33.745Z,0
2017-12-26T01:51:35.160Z,0
2017-12-26T01:52:36.566Z,0
2017-12-26T01:53:37.981Z,0
2017-12-26T01:54:39.394Z,0
2017-12-26T01:55:40.843Z,0
2017-12-26T01:56:42.262Z,0
2017-12-26T01:57:43.671Z,0
2017-12-26T01:58:45.083Z,0
2017-12-26T01:59:46.494Z,0
2017-12-26T02:00:47.908Z,0
2017-12-26T02:01:49.312Z,0
2017-12-26T02:02:50.772Z,0
2017-12-26T02:03:52.168Z,0
2017-12-26T02:04:53.572Z,0
2017-12-26T02:05:54.991Z,0
2017-12-26T02:06:56.396Z,0
2017-12-26T02:07:57.818Z,0
2017-12-26T02:08:59.323Z,0
2017-12-26T02:10:00.750Z,0
2017-12-26T02:11:02.167Z,0
2017-12-26T02:12:03.576Z,0
2017-12-26T02:13:04.984Z,0
2017-12-26T02:14:06.397Z,0
2017-12-26T02:15:07.806Z,0
2017-12-26T02:16:09.214Z,0
2017-12-26T02:17:10.641Z,0
2017-12-26T02:18:12.055Z,0
2017-12-26T02:19:13.468Z,0
2017-12-26T02:20:14.877Z,0
2017-12-26T02:21:16.290Z,0
2017-12-26T02:22:17.697Z,0
2017-12-26T02:23:19.108Z,0
2017-12-26T02:24:20.516Z,0
2017-12-26T02:25:21.927Z,0
2017-12-26T02:26:23.339Z,0
2017-12-26T02:27:24.743Z,0
2017-12-26T02:28:26.215Z,0
2017-12-26T02:29:27.613Z,0
2017-12-26T02:30:29.024Z,0
2017-12-26T02:31:30.427Z,0
2017-12-26T02:32:31.842Z,0
2017-12-26T02:33:33.239Z,0
2017-12-26T02:34:34.656Z,0
2017-12-26T02:35:36.088Z,0
2017-12-26T02:36:37.492Z,0
2017-12-26T02:37:38.911Z,0
2017-12-26T02:38:40.318Z,0
2017-12-26T02:39:41.776Z,0
2017-12-26T02:40:43.133Z,0
2017-12-26T02:41:44.547Z,0
2017-12-26T02:42:45.956Z,0
2017-12-26T02:43:47.367Z,0
2017-12-26T02:44:48.774Z,0
2017-12-26T02:45:50.195Z,0
2017-12-26T02:46:51.601Z,0
2017-12-26T02:47:53.006Z,0
2017-12-26T02:48:54.452Z,0
2017-12-26T02:49:55.826Z,0
2017-12-26T02:50:57.251Z,0
2017-12-26T02:51:58.655Z,0
2017-12-26T02:53:00.073Z,0
2017-12-26T02:54:01.503Z,0
2017-12-26T02:55:02.903Z,0
2017-12-26T02:56:04.317Z,0
2017-12-26T02:57:05.723Z,0
2017-12-26T02:58:07.135Z,0
2017-12-26T02:59:11.735Z,0
2017-12-26T03:00:13.142Z,0
2017-12-26T03:01:14.549Z,0
2017-12-26T03:02:15.972Z,0
2017-12-26T03:03:17.387Z,0
2017-12-26T03:04:18.796Z,0
2017-12-26T03:05:20.202Z,0
2017-12-26T03:06:21.605Z,0
2017-12-26T03:07:23.015Z,0
2017-12-26T03:08:24.428Z,0
2017-12-26T03:09:25.833Z,0
2017-12-26T03:10:27.242Z,0
2017-12-26T03:11:28.668Z,0
2017-12-26T03:12:30.083Z,0
2017-12-26T03:13:31.505Z,0
2017-12-26T03:14:32.915Z,0
2017-12-26T03:15:34.356Z,0
2017-12-26T03:16:35.775Z,0
2017-12-26T03:17:37.177Z,0
2017-12-26T03:18:38.586Z,0
2017-12-26T03:19:39.998Z,0
2017-12-26T03:20:41.483Z,0
2017-12-26T03:21:42.893Z,0
2017-12-26T03:22:44.299Z,0
2017-12-26T03:23:45.711Z,0
2017-12-26T03:24:47.129Z,0
2017-12-26T03:25:48.590Z,0
2017-12-26T03:26:49.949Z,0
2017-12-26T03:27:51.365Z,0
2017-12-26T03:28:52.776Z,0
2017-12-26T03:29:54.196Z,0
2017-12-26T03:30:55.611Z,0
2017-12-26T03:31:57.017Z,0
2017-12-26T03:32:58.425Z,0
2017-12-26T03:33:59.831Z,0
2017-12-26T03:35:01.243Z,0
2017-12-26T03:36:02.652Z,0
2017-12-26T03:37:04.068Z,0
2017-12-26T03:38:05.476Z,0
2017-12-26T03:39:06.886Z,0
2017-12-26T03:40:08.291Z,0
2017-12-26T03:41:09.697Z,0
2017-12-26T03:42:11.105Z,0
2017-12-26T03:43:12.514Z,0
2017-12-26T03:44:13.930Z,0
2017-12-26T03:45:15.337Z,0
2017-12-26T03:46:16.740Z,0
2017-12-26T03:47:18.156Z,0
2017-12-26T03:48:19.567Z,0
2017-12-26T03:49:20.972Z,0
2017-12-26T03:50:22.396Z,0
2017-12-26T03:51:23.817Z,0
2017-12-26T03:52:25.228Z,0
2017-12-26T03:53:26.629Z,0
2017-12-26T03:54:28.038Z,0
2017-12-26T03:55:29.445Z,0
2017-12-26T03:56:30.855Z,0
2017-12-26T03:57:32.263Z,0
2017-12-26T03:58:33.751Z,0
2017-12-26T03:59:35.171Z,0
2017-12-26T04:00:36.577Z,0
2017-12-26T04:01:37.984Z,0
2017-12-26T04:02:39.364Z,0
2017-12-26T04:03:40.777Z,0
2017-12-26T04:04:42.182Z,0
2017-12-26T04:05:43.598Z,0
2017-12-26T04:06:45.011Z,0
2017-12-26T04:07:46.424Z,0
2017-12-26T04:08:47.837Z,0
2017-12-26T04:09:49.240Z,0
2017-12-26T04:10:50.665Z,0
2017-12-26T04:11:52.073Z,0
2017-12-26T04:12:53.487Z,0
2017-12-26T04:13:54.891Z,0
2017-12-26T04:14:56.297Z,0
2017-12-26T04:15:57.696Z,0
2017-12-26T04:16:59.110Z,0
2017-12-26T04:18:00.516Z,0
2017-12-26T04:19:01.927Z,0
2017-12-26T04:20:03.349Z,0
2017-12-26T04:21:04.748Z,0
2017-12-26T04:22:06.162Z,0
2017-12-26T04:23:07.572Z,0
2017-12-26T04:24:08.986Z,0
2017-12-26T04:25:10.394Z,0
2017-12-26T04:26:11.807Z,0
2017-12-26T04:27:13.224Z,0
2017-12-26T04:28:14.624Z,0
2017-12-26T04:29:16.034Z,0
2017-12-26T04:30:17.440Z,0
2017-12-26T04:31:18.869Z,0
2017-12-26T04:32:20.274Z,0
2017-12-26T04:33:21.647Z,0
2017-12-26T04:34:23.053Z,0
2017-12-26T04:35:24.468Z,0
2017-12-26T04:36:25.874Z,0
2017-12-26T04:37:27.286Z,0
2017-12-26T04:38:28.692Z,0
2017-12-26T04:39:30.105Z,0
2017-12-26T04:40:31.517Z,0
2017-12-26T04:41:32.927Z,0
2017-12-26T04:42:34.337Z,0
2017-12-26T04:43:35.744Z,0
2017-12-26T04:44:37.156Z,0
2017-12-26T04:45:38.563Z,0
2017-12-26T04:46:39.976Z,0
2017-12-26T04:47:41.383Z,0
2017-12-26T04:48:42.799Z,0
2017-12-26T04:49:44.200Z,0
2017-12-26T04:50:45.620Z,0
2017-12-26T04:51:47.019Z,0
2017-12-26T04:52:48.427Z,0
2017-12-26T04:53:49.838Z,0
2017-12-26T04:54:51.247Z,0
2017-12-26T04:55:52.655Z,0
2017-12-26T04:56:54.070Z,0
2017-12-26T04:57:55.475Z,0
2017-12-26T04:58:56.877Z,0
2017-12-26T04:59:58.287Z,0
2017-12-26T05:00:59.709Z,0
2017-12-26T05:02:01.110Z,0
2017-12-26T05:03:02.520Z,0
2017-12-26T05:04:03.925Z,0
2017-12-26T05:05:05.345Z,0
2017-12-26T05:06:06.756Z,0
2017-12-26T05:07:08.165Z,0
2017-12-26T05:08:09.579Z,0
2017-12-26T05:09:10.996Z,0
2017-12-26T05:10:12.402Z,0
2017-12-26T05:11:13.800Z,0
2017-12-26T05:12:15.219Z,0
2017-12-26T05:13:16.627Z,0
2017-12-26T05:14:18.035Z,0
2017-12-26T05:15:19.445Z,0
2017-12-26T05:16:20.864Z,0
2017-12-26T05:17:22.280Z,0
2017-12-26T05:18:23.680Z,0
2017-12-26T05:19:25.102Z,0
2017-12-26T05:20:26.513Z,0
2017-12-26T05:21:27.923Z,0
2017-12-26T05:22:29.339Z,0
2017-12-26T05:23:30.745Z,0
2017-12-26T05:24:32.163Z,0
2017-12-26T05:25:33.565Z,0
2017-12-26T05:26:34.977Z,0
2017-12-26T05:27:36.381Z,0
2017-12-26T05:28:37.866Z,0
2017-12-26T05:29:39.276Z,0
2017-12-26T05:30:40.694Z,0
2017-12-26T05:31:42.099Z,0
2017-12-26T05:32:43.505Z,0
2017-12-26T05:33:44.911Z,0
2017-12-26T05:34:46.318Z,0
2017-12-26T05:35:47.736Z,0
2017-12-26T05:36:49.148Z,0
2017-12-26T05:37:50.558Z,0
2017-12-26T05:38:51.981Z,0
2017-12-26T05:39:53.386Z,0
2017-12-26T05:40:54.806Z,0
2017-12-26T05:41:56.213Z,0
2017-12-26T05:42:57.627Z,0
2017-12-26T05:43:59.037Z,0
2017-12-26T05:45:00.464Z,0
2017-12-26T05:46:01.865Z,0
2017-12-26T05:47:03.275Z,0
2017-12-26T05:48:04.802Z,0
2017-12-26T05:49:06.217Z,0
2017-12-26T05:50:07.627Z,0
2017-12-26T05:51:09.035Z,0
2017-12-26T05:52:10.454Z,0
2017-12-26T05:53:11.860Z,0
2017-12-26T05:54:13.278Z,0
2017-12-26T05:55:14.696Z,0
2017-12-26T05:56:16.106Z,0
2017-12-26T05:57:17.512Z,0
2017-12-26T05:58:18.943Z,0
2017-12-26T05:59:20.357Z,0
2017-12-26T06:00:21.773Z,0
2017-12-26T06:01:23.187Z,0
2017-12-26T06:02:24.622Z,0
2017-12-26T06:03:26.035Z,0
2017-12-26T06:04:27.437Z,0
2017-12-26T06:05:28.863Z,0
2017-12-26T06:06:30.268Z,0
2017-12-26T06:07:31.671Z,0
2017-12-26T06:08:33.088Z,0
2017-12-26T06:09:34.491Z,0
2017-12-26T06:10:35.894Z,0
2017-12-26T06:11:37.310Z,0
2017-12-26T06:12:38.721Z,0
2017-12-26T06:13:40.256Z,0
2017-12-26T06:14:41.669Z,0
2017-12-26T06:15:43.073Z,0
2017-12-26T06:16:44.478Z,0
2017-12-26T06:17:45.894Z,0
2017-12-26T06:18:47.306Z,0
2017-12-26T06:19:48.713Z,0
2017-12-26T06:20:50.120Z,0
2017-12-26T06:21:51.537Z,0
2017-12-26T06:22:52.953Z,0
2017-12-26T06:23:54.368Z,0
2017-12-26T06:24:55.779Z,0
2017-12-26T06:25:57.227Z,0
2017-12-26T06:26:58.638Z,0
2017-12-26T06:28:00.054Z,0
2017-12-26T06:29:01.468Z,0
2017-12-26T06:30:02.874Z,0
2017-12-26T06:31:04.285Z,0
2017-12-26T06:32:05.696Z,0
2017-12-26T06:33:07.114Z,0
2017-12-26T06:34:08.516Z,0
2017-12-26T06:35:09.934Z,0
2017-12-26T06:36:11.340Z,0
2017-12-26T06:37:12.759Z,0
2017-12-26T06:38:14.161Z,0
2017-12-26T06:39:15.678Z,0
2017-12-26T06:40:17.089Z,0
2017-12-26T06:41:18.501Z,0
2017-12-26T06:42:19.947Z,0
2017-12-26T06:43:21.372Z,0
2017-12-26T06:44:22.800Z,0
2017-12-26T06:45:24.222Z,0
2017-12-26T06:46:25.629Z,0
2017-12-26T06:47:27.032Z,0
2017-12-26T06:48:28.442Z,0
2017-12-26T06:49:29.849Z,0
2017-12-26T06:50:31.263Z,0
2017-12-26T06:51:32.668Z,0
2017-12-26T06:52:34.083Z,0
2017-12-26T06:53:35.495Z,0
2017-12-26T06:54:36.907Z,0
2017-12-26T06:55:38.319Z,0
2017-12-26T06:56:39.726Z,0
2017-12-26T06:57:41.144Z,0
2017-12-26T06:58:42.559Z,0
2017-12-26T06:59:43.968Z,0
2017-12-26T07:00:45.373Z,0
2017-12-26T07:01:46.788Z,0
2017-12-26T07:02:48.208Z,0
2017-12-26T07:03:49.610Z,0
2017-12-26T07:04:51.046Z,0
2017-12-26T07:05:52.427Z,0
2017-12-26T07:06:53.840Z,0
2017-12-26T07:07:55.245Z,0
2017-12-26T07:08:56.651Z,0
2017-12-26T07:09:58.058Z,0
2017-12-26T07:10:59.469Z,0
2017-12-26T07:12:00.879Z,0
2017-12-26T07:13:02.294Z,0
2017-12-26T07:14:03.705Z,0
2017-12-26T07:15:05.115Z,0
2017-12-26T07:16:06.525Z,0
2017-12-26T07:17:07.930Z,0
2017-12-26T07:18:09.345Z,0
2017-12-26T07:19:10.755Z,0
2017-12-26T07:20:12.169Z,0
2017-12-26T07:21:13.586Z,0
2017-12-26T07:22:15.003Z,0
2017-12-26T07:23:16.409Z,0
2017-12-26T07:24:17.816Z,0
2017-12-26T07:25:19.227Z,0
2017-12-26T07:26:20.632Z,0
2017-12-26T07:27:22.033Z,0
2017-12-26T07:28:23.475Z,0
2017-12-26T07:29:24.865Z,0
2017-12-26T07:30:26.272Z,0
2017-12-26T07:31:27.690Z,0
2017-12-26T07:32:29.112Z,0
2017-12-26T07:33:30.528Z,0
2017-12-26T07:34:31.934Z,0
2017-12-26T07:35:33.342Z,0
2017-12-26T07:36:34.758Z,0
2017-12-26T07:37:36.179Z,0
2017-12-26T07:38:37.579Z,0
2017-12-26T07:39:39.003Z,0
2017-12-26T07:40:40.412Z,0
2017-12-26T07:41:41.828Z,0
2017-12-26T07:42:43.238Z,0
2017-12-26T07:43:44.654Z,0
2017-12-26T07:44:46.054Z,0
2017-12-26T07:45:47.464Z,0
2017-12-26T07:46:48.892Z,0
2017-12-26T07:47:50.285Z,0
2017-12-26T07:48:51.698Z,0
2017-12-26T07:49:53.116Z,0
2017-12-26T07:50:54.526Z,0
2017-12-26T07:51:55.941Z,0
2017-12-26T07:52:57.349Z,0
2017-12-26T07:53:58.773Z,0
2017-12-26T07:55:00.186Z,0
2017-12-26T07:56:01.596Z,0
2017-12-26T07:57:03.009Z,0
2017-12-26T07:58:04.415Z,0
2017-12-26T07:59:05.827Z,0
2017-12-26T08:00:07.249Z,0
2017-12-26T08:01:08.661Z,0
2017-12-26T08:02:10.066Z,0
2017-12-26T08:03:11.479Z,0
2017-12-26T08:04:12.890Z,0
2017-12-26T08:05:14.298Z,0
2017-12-26T08:06:15.719Z,0
2017-12-26T08:07:17.127Z,0
2017-12-26T08:08:18.539Z,0
2017-12-26T08:09:19.948Z,0
2017-12-26T08:10:21.374Z,0
2017-12-26T08:11:22.784Z,0
2017-12-26T08:12:24.253Z,0
2017-12-26T08:13:25.669Z,0
2017-12-26T08:14:27.072Z,0
2017-12-26T08:15:28.489Z,0
2017-12-26T08:16:29.906Z,0
2017-12-26T08:17:31.313Z,0
2017-12-26T08:18:32.807Z,0
2017-12-26T08:19:34.225Z,0
2017-12-26T08:20:35.635Z,0
2017-12-26T08:21:37.046Z,0
2017-12-26T08:22:38.458Z,0
2017-12-26T08:23:39.869Z,0
2017-12-26T08:24:41.277Z,0
2017-12-26T08:25:42.699Z,0
2017-12-26T08:26:44.106Z,0
2017-12-26T08:27:45.525Z,5
2017-12-26T08:28:46.953Z,5
2017-12-26T08:29:48.363Z,5
2017-12-26T08:30:49.790Z,5
2017-12-26T08:31:51.208Z,5
2017-12-26T08:32:52.623Z,5
2017-12-26T08:33:54.050Z,5
2017-12-26T08:34:55.468Z,5
2017-12-26T08:35:56.888Z,5
2017-12-26T08:36:58.302Z,5
2017-12-26T08:37:59.716Z,0
2017-12-26T08:39:01.126Z,0
2017-12-26T08:40:02.546Z,0
2017-12-26T08:41:03.968Z,5
2017-12-26T08:42:05.396Z,5
2017-12-26T08:43:06.822Z,0
2017-12-26T08:44:08.242Z,5
2017-12-26T08:45:09.656Z,0
2017-12-26T08:46:11.067Z,5
2017-12-26T08:47:12.490Z,5
2017-12-26T08:48:13.905Z,5
2017-12-26T08:49:15.320Z,5
2017-12-26T08:50:16.737Z,5
2017-12-26T08:51:18.158Z,10
2017-12-26T08:52:19.585Z,10
2017-12-26T08:53:20.999Z,10
2017-12-26T08:54:22.417Z,10
2017-12-26T08:55:23.832Z,5
2017-12-26T08:56:25.245Z,10
2017-12-26T08:57:26.661Z,10
2017-12-26T08:58:28.070Z,10
2017-12-26T08:59:29.485Z,10
2017-12-26T09:00:30.902Z,10
2017-12-26T09:01:32.323Z,10
2017-12-26T09:02:33.728Z,10
2017-12-26T09:03:35.168Z,10
2017-12-26T09:04:36.583Z,10
2017-12-26T09:05:38.009Z,10
2017-12-26T09:06:39.421Z,10
2017-12-26T09:07:40.844Z,10
2017-12-26T09:08:42.262Z,5
2017-12-26T09:09:43.671Z,10
2017-12-26T09:10:45.159Z,10
2017-12-26T09:11:46.568Z,10
2017-12-26T09:12:47.983Z,10
2017-12-26T09:13:49.401Z,10
2017-12-26T09:14:50.808Z,10
2017-12-26T09:15:52.232Z,10
2017-12-26T09:16:53.650Z,10
2017-12-26T09:17:55.096Z,10
2017-12-26T09:18:56.487Z,10
2017-12-26T09:19:57.899Z,10
2017-12-26T09:20:59.325Z,15
2017-12-26T09:22:00.731Z,15
2017-12-26T09:23:02.144Z,15
2017-12-26T09:24:03.556Z,15
2017-12-26T09:25:05.009Z,20
2017-12-26T09:26:07.235Z,20
2017-12-26T09:27:08.676Z,20
2017-12-26T09:28:10.089Z,20
2017-12-26T09:29:11.733Z,20
2017-12-26T09:30:13.185Z,20
2017-12-26T09:31:14.598Z,20
2017-12-26T09:32:16.007Z,15
2017-12-26T09:33:17.488Z,15
2017-12-26T09:34:18.912Z,15
2017-12-26T09:35:20.324Z,15
2017-12-26T09:36:21.742Z,20
2017-12-26T09:37:23.251Z,20
2017-12-26T09:38:25.863Z,20
2017-12-26T09:39:27.589Z,20
2017-12-26T09:40:29.378Z,25
2017-12-26T09:41:30.736Z,30
2017-12-26T09:42:32.151Z,35
2017-12-26T09:43:33.571Z,35
2017-12-26T09:44:34.991Z,35
2017-12-26T09:45:36.413Z,35
2017-12-26T09:46:37.813Z,35
2017-12-26T09:47:39.229Z,35
2017-12-26T09:48:40.647Z,35
2017-12-26T09:49:42.117Z,35
2017-12-26T09:50:43.538Z,40
2017-12-26T09:51:44.967Z,45
2017-12-26T09:52:46.368Z,45
2017-12-26T09:53:47.782Z,45
2017-12-26T09:54:49.212Z,50
2017-12-26T09:55:50.630Z,50
2017-12-26T09:56:52.055Z,45
2017-12-26T09:57:53.459Z,40
2017-12-26T09:58:54.880Z,35
2017-12-26T09:59:56.301Z,35
2017-12-26T10:00:57.715Z,30
2017-12-26T10:01:59.123Z,30
2017-12-26T10:03:00.534Z,25
2017-12-26T10:04:01.942Z,25
2017-12-26T10:05:03.400Z,25
2017-12-26T10:06:04.870Z,25
2017-12-26T10:07:06.360Z,30
2017-12-26T10:08:07.819Z,35
2017-12-26T10:09:09.238Z,45
2017-12-26T10:10:10.660Z,50
2017-12-26T10:11:12.191Z,50
2017-12-26T10:12:13.665Z,60
2017-12-26T10:13:15.042Z,65
2017-12-26T10:14:16.458Z,60
2017-12-26T10:15:17.875Z,55
2017-12-26T10:16:19.281Z,50
2017-12-26T10:17:20.758Z,45
2017-12-26T10:18:22.168Z,40
2017-12-26T10:19:23.586Z,40
2017-12-26T10:20:25.002Z,45
2017-12-26T10:21:26.417Z,50
2017-12-26T10:22:27.827Z,45
2017-12-26T10:23:29.237Z,45
2017-12-26T10:24:30.674Z,50
2017-12-26T10:25:32.086Z,55
2017-12-26T10:26:33.505Z,60
2017-12-26T10:27:34.925Z,70
2017-12-26T10:28:36.342Z,70
2017-12-26T10:29:37.759Z,60
2017-12-26T10:30:39.178Z,60
2017-12-26T10:31:40.591Z,55
2017-12-26T10:32:42.022Z,50
2017-12-26T10:33:43.434Z,60
2017-12-26T10:34:44.852Z,70
2017-12-26T10:35:46.275Z,75
2017-12-26T10:36:47.690Z,75
2017-12-26T10:37:49.103Z,70
2017-12-26T10:38:50.518Z,75
2017-12-26T10:39:51.938Z,95
2017-12-26T10:40:53.366Z,100
2017-12-26T10:41:54.778Z,90
2017-12-26T10:42:56.192Z,75
2017-12-26T10:43:57.613Z,65
2017-12-26T10:44:59.036Z,65
2017-12-26T10:46:00.446Z,70
2017-12-26T10:47:01.859Z,70
2017-12-26T10:48:03.278Z,80
2017-12-26T10:49:04.699Z,70
2017-12-26T10:50:06.240Z,65
2017-12-26T10:51:07.655Z,65
2017-12-26T10:52:09.074Z,70
2017-12-26T10:53:10.496Z,85
2017-12-26T10:54:11.912Z,105
2017-12-26T10:55:13.334Z,115
2017-12-26T10:56:14.828Z,125
2017-12-26T10:57:16.251Z,135
2017-12-26T10:58:17.673Z,130
2017-12-26T10:59:19.098Z,130
2017-12-26T11:00:20.519Z,130
2017-12-26T11:01:21.938Z,125
2017-12-26T11:02:23.363Z,110
2017-12-26T11:03:24.786Z,110
2017-12-26T11:04:26.218Z,105
2017-12-26T11:05:27.667Z,110
2017-12-26T11:06:29.093Z,105
2017-12-26T11:07:30.511Z,80
2017-12-26T11:08:31.937Z,70
2017-12-26T11:09:33.352Z,70
2017-12-26T11:10:34.775Z,70
2017-12-26T11:11:36.190Z,50
2017-12-26T11:12:37.612Z,45
2017-12-26T11:13:39.029Z,55
2017-12-26T11:14:40.440Z,60
2017-12-26T11:15:41.858Z,80
2017-12-26T11:16:43.291Z,75
2017-12-26T11:17:44.714Z,80
2017-12-26T11:18:46.126Z,70
2017-12-26T11:19:47.544Z,90
2017-12-26T11:20:48.950Z,85
2017-12-26T11:21:50.377Z,95
2017-12-26T11:22:51.803Z,70
2017-12-26T11:23:53.217Z,85
2017-12-26T11:24:54.658Z,75
2017-12-26T11:25:56.066Z,90
2017-12-26T11:26:57.488Z,100
2017-12-26T11:28:05.068Z,100
2017-12-26T11:29:07.071Z,110
2017-12-26T11:30:08.513Z,110
2017-12-26T11:31:12.062Z,80
2017-12-26T11:32:16.114Z,95
2017-12-26T11:33:20.410Z,70
2017-12-26T11:34:22.711Z,90
2017-12-26T11:35:26.744Z,100
2017-12-26T11:36:30.393Z,125
2017-12-26T11:37:35.329Z,105
2017-12-26T11:38:37.566Z,105
2017-12-26T11:39:43.029Z,135
2017-12-26T11:40:46.929Z,155
2017-12-26T11:41:50.687Z,130
2017-12-26T11:42:55.136Z,120
2017-12-26T11:43:58.671Z,65
2017-12-26T11:45:00.746Z,75
2017-12-26T11:46:02.836Z,105
2017-12-26T11:47:06.909Z,90
2017-12-26T11:48:08.926Z,105
2017-12-26T11:49:11.368Z,75
2017-12-26T11:50:12.780Z,70
2017-12-26T11:51:14.212Z,40
2017-12-26T11:52:15.633Z,30
2017-12-26T11:53:17.054Z,35
2017-12-26T11:54:18.474Z,40
2017-12-26T11:55:19.910Z,40
2017-12-26T11:56:21.329Z,40
2017-12-26T11:57:22.759Z,45
2017-12-26T11:58:24.177Z,55
2017-12-26T11:59:30.684Z,100
2017-12-26T12:00:35.479Z,160
2017-12-26T12:01:39.265Z,185
2017-12-26T12:02:43.827Z,140
2017-12-26T12:03:47.069Z,155
2017-12-26T12:04:51.605Z,195
2017-12-26T12:05:55.482Z,195
2017-12-26T12:06:59.806Z,200
2017-12-26T12:08:04.611Z,145
2017-12-26T12:09:08.289Z,75
2017-12-26T12:10:11.670Z,50
2017-12-26T12:11:15.998Z,50
2017-12-26T12:12:19.350Z,65
2017-12-26T12:13:23.218Z,60
2017-12-26T12:14:24.394Z,35
2017-12-26T12:15:25.814Z,45
2017-12-26T12:16:27.264Z,25
2017-12-26T12:17:28.692Z,30
2017-12-26T12:18:30.110Z,30
2017-12-26T12:19:31.572Z,30
2017-12-26T12:20:33.005Z,65
2017-12-26T12:21:34.432Z,50
2017-12-26T12:22:35.847Z,35
2017-12-26T12:23:37.285Z,40
2017-12-26T12:24:38.678Z,65
2017-12-26T12:25:40.091Z,130
2017-12-26T12:26:41.511Z,130
2017-12-26T12:27:42.927Z,130
2017-12-26T12:28:44.460Z,130
2017-12-26T12:29:45.872Z,155
2017-12-26T12:30:47.297Z,165
2017-12-26T12:31:48.706Z,175
2017-12-26T12:32:50.125Z,200
2017-12-26T12:33:51.532Z,185
2017-12-26T12:34:52.950Z,145
2017-12-26T12:35:54.389Z,165
2017-12-26T12:36:55.868Z,150
2017-12-26T12:37:57.321Z,210
2017-12-26T12:38:58.739Z,795
2017-12-26T12:40:00.162Z,165
2017-12-26T12:41:01.583Z,160
2017-12-26T12:42:03.007Z,895
2017-12-26T12:43:04.433Z,65
2017-12-26T12:44:05.850Z,80
2017-12-26T12:45:07.271Z,260
2017-12-26T12:46:08.692Z,425
2017-12-26T12:47:10.142Z,235
2017-12-26T12:48:11.564Z,215
2017-12-26T12:49:12.982Z,810
2017-12-26T12:50:14.409Z,505
2017-12-26T12:51:15.833Z,330
2017-12-26T12:52:17.248Z,285
2017-12-26T12:53:18.677Z,290
2017-12-26T12:54:20.099Z,240
2017-12-26T12:55:21.532Z,200
2017-12-26T12:56:22.963Z,200
2017-12-26T12:57:24.380Z,155
2017-12-26T12:58:25.794Z,160
2017-12-26T12:59:27.211Z,215
2017-12-26T13:00:28.629Z,240
2017-12-26T13:01:30.065Z,200
2017-12-26T13:02:31.494Z,165
2017-12-26T13:03:32.917Z,225
2017-12-26T13:04:34.332Z,220
2017-12-26T13:05:35.797Z,160
2017-12-26T13:06:37.224Z,145
2017-12-26T13:07:38.652Z,100
2017-12-26T13:08:40.071Z,115
2017-12-26T13:09:41.487Z,95
2017-12-26T13:10:42.907Z,135
2017-12-26T13:11:44.323Z,135
2017-12-26T13:12:45.747Z,75
2017-12-26T13:13:47.170Z,60
2017-12-26T13:14:48.589Z,45
2017-12-26T13:16:31.399Z,55
2017-12-26T13:17:32.825Z,35
2017-12-26T13:18:34.230Z,35
2017-12-26T13:19:35.659Z,40
2017-12-26T13:20:37.074Z,35
2017-12-26T13:21:38.535Z,60
2017-12-26T13:22:39.960Z,55
2017-12-26T13:23:41.385Z,75
2017-12-26T13:24:42.807Z,55
2017-12-26T13:25:44.223Z,45
2017-12-26T13:26:45.647Z,60
2017-12-26T13:27:47.061Z,55
2017-12-26T13:28:48.491Z,50
2017-12-26T13:29:49.909Z,30
2017-12-26T13:30:51.321Z,40
2017-12-26T13:31:52.748Z,30
2017-12-26T13:32:54.166Z,20
2017-12-26T13:33:55.586Z,20
2017-12-26T13:35:07.170Z,20
2017-12-26T13:43:46.719Z,35
2017-12-26T13:44:53.116Z,40
2017-12-26T13:45:57.339Z,40
2017-12-26T13:47:00.974Z,40
2017-12-26T13:48:04.896Z,55
2017-12-26T13:49:07.640Z,55
2017-12-26T13:50:11.326Z,50
2017-12-26T13:51:49.577Z,45
2017-12-26T13:52:51.511Z,40
2017-12-26T13:53:56.591Z,45
2017-12-26T13:56:10.781Z,45
2017-12-26T13:57:16.024Z,10
2017-12-26T13:58:19.790Z,65
2017-12-26T13:59:21.042Z,60
2017-12-26T14:00:22.454Z,65
2017-12-26T14:01:23.869Z,60
2017-12-26T14:02:25.288Z,55
2017-12-26T14:03:26.723Z,55
2017-12-26T14:04:28.145Z,45
2017-12-26T14:05:29.556Z,30
2017-12-26T14:06:30.973Z,25
2017-12-26T14:07:32.389Z,20
2017-12-26T14:08:33.810Z,20
2017-12-26T14:09:35.224Z,15
2017-12-26T14:10:36.637Z,15
2017-12-26T14:11:38.044Z,15
2017-12-26T14:12:39.456Z,10
2017-12-26T14:13:40.882Z,5
2017-12-26T14:14:42.304Z,10
2017-12-26T14:15:43.710Z,20
2017-12-26T14:16:45.121Z,15
2017-12-26T14:17:46.539Z,5
2017-12-26T14:18:47.951Z,10
2017-12-26T14:19:49.369Z,15
2017-12-26T14:20:50.782Z,25
2017-12-26T14:21:52.197Z,20
2017-12-26T14:22:53.627Z,25
2017-12-26T14:23:55.045Z,30
2017-12-26T14:24:56.476Z,35
2017-12-26T14:25:57.881Z,20
2017-12-26T14:26:59.307Z,20
2017-12-26T14:28:00.722Z,20
2017-12-26T14:29:02.134Z,25
2017-12-26T14:30:03.571Z,20
2017-12-26T14:31:04.985Z,25
2017-12-26T14:32:06.408Z,20
2017-12-26T14:33:07.821Z,15
2017-12-26T14:34:09.265Z,15
2017-12-26T14:35:10.694Z,20
2017-12-26T14:36:12.107Z,15
2017-12-26T14:37:13.557Z,15
2017-12-26T14:38:14.971Z,15
2017-12-26T14:39:16.390Z,15
2017-12-26T14:40:17.810Z,10
2017-12-26T14:41:19.214Z,15
2017-12-26T14:42:20.636Z,15
2017-12-26T14:43:22.093Z,20
2017-12-26T14:44:23.460Z,20
2017-12-26T14:45:24.867Z,20
2017-12-26T14:46:26.287Z,25
2017-12-26T14:47:27.700Z,25
2017-12-26T14:48:29.107Z,25
2017-12-26T14:49:30.532Z,25
2017-12-26T14:50:31.948Z,25
2017-12-26T14:51:33.370Z,30
2017-12-26T14:52:34.783Z,25
2017-12-26T14:53:36.198Z,25
2017-12-26T14:54:37.614Z,25
2017-12-26T14:55:39.043Z,20
2017-12-26T14:56:40.450Z,20
2017-12-26T14:57:41.864Z,5
2017-12-26T14:58:43.275Z,0
2017-12-26T14:59:44.685Z,5
2017-12-26T15:00:46.099Z,5
2017-12-26T15:01:47.528Z,0
2017-12-26T15:02:48.957Z,0
2017-12-26T15:03:50.385Z,0